createdAt,value
2023-10-05T00:01:25.856Z,2.38
2023-10-05T00:03:53.782Z,2.60
2023-10-05T00:06:25.715Z,2.97
2023-10-05T00:08:55.565Z,2.40
2023-10-05T00:11:25.964Z,2.22
2023-10-05T00:13:54.242Z,3.15
2023-10-05T00:16:22.842Z,2.50
2023-10-05T00:18:51.752Z,2.90
2023-10-05T00:21:20.980Z,2.72
2023-10-05T00:23:53.155Z,2.35
2023-10-05T00:26:24.623Z,2.90
2023-10-05T00:29:05.501Z,3.17
2023-10-05T00:31:39.353Z,2.63
2023-10-05T00:34:09.803Z,2.65
2023-10-05T00:36:40.748Z,2.78
2023-10-05T00:39:10.310Z,3.03
2023-10-05T00:41:39.226Z,3.03
2023-10-05T00:44:08.847Z,3.08
2023-10-05T00:46:39.658Z,3.15
2023-10-05T00:49:15.230Z,3.40
2023-10-05T00:51:47.929Z,3.00
2023-10-05T00:54:20.059Z,3.80
2023-10-05T00:56:50.051Z,3.17
2023-10-05T00:59:21.019Z,3.15
2023-10-05T01:02:05.869Z,3.20
2023-10-05T01:04:54.414Z,3.20
2023-10-05T01:07:29.649Z,3.20
2023-10-05T01:10:18.606Z,3.05
2023-10-05T01:12:49.349Z,2.63
2023-10-05T01:15:20.427Z,3.25
2023-10-05T01:17:51.107Z,2.90
2023-10-05T01:20:24.478Z,3.10
2023-10-05T01:22:56.064Z,2.53
2023-10-05T01:25:26.765Z,3.65
2023-10-05T01:27:55.359Z,2.85
2023-10-05T01:30:23.470Z,3.22
2023-10-05T01:32:51.603Z,3.00
2023-10-05T01:35:20.137Z,3.00
2023-10-05T01:37:52.072Z,2.88
2023-10-05T01:40:25.945Z,3.42
2023-10-05T01:42:55.430Z,2.90
2023-10-05T01:45:26.297Z,2.83
2023-10-05T01:47:55.465Z,2.90
2023-10-05T01:50:24.501Z,3.05
2023-10-05T01:52:58.435Z,2.75
2023-10-05T01:55:27.601Z,2.83
2023-10-05T01:57:57.298Z,2.60
2023-10-05T02:00:26.684Z,3.15
2023-10-05T02:02:57.027Z,2.92
2023-10-05T02:05:24.825Z,2.60
2023-10-05T02:07:52.628Z,2.78
2023-10-05T02:10:21.930Z,3.03
2023-10-05T02:12:54.855Z,3.13
2023-10-05T02:15:30.318Z,3.05
2023-10-05T02:18:03.225Z,2.83
2023-10-05T02:20:39.357Z,2.70
2023-10-05T02:23:17.991Z,3.30
2023-10-05T02:25:46.619Z,2.92
2023-10-05T02:28:24.354Z,2.92
2023-10-05T02:30:54.905Z,3.67
2023-10-05T02:33:25.637Z,3.30
2023-10-05T02:36:01.035Z,2.72
2023-10-05T02:38:29.314Z,2.80
2023-10-05T02:41:03.729Z,3.38
2023-10-05T02:43:39.338Z,3.13
2023-10-05T02:46:12.673Z,3.25
2023-10-05T02:48:42.686Z,3.13
2023-10-05T02:51:11.961Z,3.58
2023-10-05T02:53:42.909Z,3.13
2023-10-05T02:56:21.537Z,3.00
2023-10-05T02:58:51.658Z,2.88
2023-10-05T03:01:20.719Z,3.42
2023-10-05T03:03:49.225Z,3.60
2023-10-05T03:06:17.609Z,3.03
2023-10-05T03:08:46.789Z,3.17
2023-10-05T03:11:14.499Z,3.97
2023-10-05T03:13:43.046Z,3.40
2023-10-05T03:16:12.144Z,2.72
2023-10-05T03:18:44.269Z,2.28
2023-10-05T03:21:14.311Z,2.40
2023-10-05T03:23:43.232Z,2.47
2023-10-05T03:26:12.027Z,2.30
2023-10-05T03:28:42.612Z,2.25
2023-10-05T03:31:15.372Z,2.10
2023-10-05T03:33:44.817Z,2.08
2023-10-05T03:36:15.149Z,2.35
2023-10-05T03:38:43.418Z,2.20
2023-10-05T03:41:17.432Z,2.45
2023-10-05T03:43:48.092Z,2.58
2023-10-05T03:46:18.367Z,2.38
2023-10-05T03:48:47.489Z,2.15
2023-10-05T03:51:17.501Z,2.63
2023-10-05T03:53:49.670Z,2.10
2023-10-05T03:56:20.823Z,2.08
2023-10-05T03:58:49.177Z,2.05
2023-10-05T04:01:18.533Z,2.33
2023-10-05T04:03:48.264Z,2.25
2023-10-05T04:06:19.468Z,2.50
2023-10-05T04:08:49.029Z,2.35
2023-10-05T04:11:18.218Z,2.30
2023-10-05T04:13:46.555Z,2.65
2023-10-05T04:16:19.280Z,2.58
2023-10-05T04:18:51.043Z,3.10
2023-10-05T04:21:20.288Z,2.38
2023-10-05T04:23:50.936Z,3.00
2023-10-05T04:26:19.842Z,2.70
2023-10-05T04:28:55.728Z,2.70
2023-10-05T04:31:26.374Z,3.30
2023-10-05T04:33:57.203Z,3.03
2023-10-05T04:36:25.253Z,3.22
2023-10-05T04:38:55.466Z,2.97
2023-10-05T04:41:30.086Z,3.03
2023-10-05T04:43:58.499Z,2.58
2023-10-05T04:46:26.359Z,2.47
2023-10-05T04:48:57.881Z,3.30
2023-10-05T04:51:29.496Z,3.33
2023-10-05T04:53:59.332Z,3.10
2023-10-05T04:56:41.072Z,3.20
2023-10-05T04:59:24.079Z,2.75
2023-10-05T05:02:01.490Z,2.92
2023-10-05T05:04:29.460Z,3.00
2023-10-05T05:07:00.891Z,2.67
2023-10-05T05:09:30.957Z,2.60
2023-10-05T05:12:04.629Z,2.83
2023-10-05T05:14:34.748Z,3.08
2023-10-05T05:17:03.534Z,2.40
2023-10-05T05:19:31.846Z,2.60
2023-10-05T05:22:03.762Z,2.90
2023-10-05T05:24:31.365Z,2.20
2023-10-05T05:27:01.960Z,2.45
2023-10-05T05:29:34.048Z,2.90
2023-10-05T05:32:08.248Z,2.75
2023-10-05T05:34:36.750Z,2.55
2023-10-05T05:37:06.497Z,2.70
2023-10-05T05:39:40.493Z,3.10
2023-10-05T05:42:14.527Z,2.85
2023-10-05T05:44:42.756Z,2.90
2023-10-05T05:47:11.713Z,2.80
2023-10-05T05:49:40.271Z,2.65
2023-10-05T05:52:10.047Z,2.40
2023-10-05T05:54:37.828Z,2.55
2023-10-05T05:57:07.778Z,2.90
2023-10-05T05:59:36.320Z,2.63
2023-10-05T06:02:08.155Z,2.30
2023-10-05T06:04:36.164Z,2.38
2023-10-05T06:07:12.343Z,2.10
2023-10-05T06:09:44.032Z,2.63
2023-10-05T06:12:13.037Z,2.50
2023-10-05T06:14:41.578Z,2.50
2023-10-05T06:17:09.597Z,2.90
2023-10-05T06:19:37.553Z,2.08
2023-10-05T06:22:07.461Z,2.38
2023-10-05T06:24:36.362Z,2.75
2023-10-05T06:27:06.653Z,2.50
2023-10-05T06:29:35.050Z,2.47
2023-10-05T06:32:05.574Z,3.17
2023-10-05T06:34:33.518Z,2.70
2023-10-05T06:37:03.102Z,2.55
2023-10-05T06:39:31.024Z,2.65
2023-10-05T06:41:59.135Z,2.95
2023-10-05T06:44:34.969Z,2.40
2023-10-05T06:47:05.778Z,2.67
2023-10-05T06:49:33.744Z,2.88
2023-10-05T06:52:02.138Z,2.50
2023-10-05T06:54:31.184Z,2.45
2023-10-05T06:56:59.601Z,2.08
2023-10-05T06:59:27.278Z,2.08
2023-10-05T07:01:56.321Z,2.40
2023-10-05T07:04:26.563Z,1.90
2023-10-05T07:06:54.525Z,2.33
2023-10-05T07:09:27.719Z,2.30
2023-10-05T07:11:55.395Z,2.10
2023-10-05T07:14:25.131Z,2.13
2023-10-05T07:16:56.359Z,2.15
2023-10-05T07:19:25.255Z,2.10
2023-10-05T07:21:52.947Z,2.35
2023-10-05T07:24:21.051Z,2.30
2023-10-05T07:26:48.691Z,2.10
2023-10-05T07:29:30.672Z,2.40
2023-10-05T07:31:59.692Z,2.47
2023-10-05T07:34:28.944Z,2.25
2023-10-05T07:36:58.151Z,2.25
2023-10-05T07:39:25.805Z,2.50
2023-10-05T07:41:53.489Z,2.30
2023-10-05T07:44:22.505Z,2.28
2023-10-05T07:46:50.451Z,2.33
2023-10-05T07:49:18.161Z,2.75
2023-10-05T07:51:47.309Z,3.30
2023-10-05T07:54:14.962Z,3.05
2023-10-05T07:56:43.296Z,2.85
2023-10-05T07:59:10.950Z,2.80
2023-10-05T08:01:39.144Z,2.33
2023-10-05T08:04:07.032Z,3.00
2023-10-05T08:06:34.805Z,2.90
2023-10-05T08:09:07.214Z,2.50
2023-10-05T08:11:35.705Z,2.65
2023-10-05T08:14:05.112Z,2.50
2023-10-05T08:16:33.294Z,3.00
2023-10-05T08:19:00.992Z,2.42
2023-10-05T08:21:29.094Z,2.70
2023-10-05T08:23:56.719Z,2.88
2023-10-05T08:26:29.519Z,2.35
2023-10-05T08:28:57.907Z,2.45
2023-10-05T08:31:25.806Z,2.25
2023-10-05T08:33:54.780Z,1.98
2023-10-05T08:36:22.746Z,2.40
2023-10-05T08:38:51.179Z,2.17
2023-10-05T08:41:25.416Z,2.55
2023-10-05T08:43:55.572Z,2.30
2023-10-05T08:46:23.308Z,2.30
2023-10-05T08:48:51.957Z,2.28
2023-10-05T08:51:20.213Z,2.63
2023-10-05T08:53:55.865Z,2.60
2023-10-05T08:56:24.292Z,2.30
2023-10-05T08:58:53.481Z,2.15
2023-10-05T09:01:26.539Z,2.42
2023-10-05T09:04:02.635Z,2.03
2023-10-05T09:06:31.708Z,2.63
2023-10-05T09:09:08.971Z,2.35
2023-10-05T09:11:37.029Z,2.33
2023-10-05T09:14:13.943Z,2.20
2023-10-05T09:16:44.408Z,2.15
2023-10-05T09:19:16.098Z,2.35
2023-10-05T09:21:45.479Z,2.20
2023-10-05T09:24:21.024Z,2.17
2023-10-05T09:26:52.313Z,1.98
2023-10-05T09:29:21.503Z,2.20
2023-10-05T09:31:54.808Z,2.50
2023-10-05T09:34:33.858Z,2.38
2023-10-05T09:37:03.159Z,2.50
2023-10-05T09:39:31.338Z,2.55
2023-10-05T09:42:02.296Z,2.20
2023-10-05T09:44:32.796Z,2.50
2023-10-05T09:47:02.526Z,2.28
2023-10-05T09:49:32.227Z,2.70
2023-10-05T09:51:59.991Z,2.55
2023-10-05T09:54:29.536Z,2.60
2023-10-05T09:56:57.365Z,2.50
2023-10-05T09:59:26.408Z,2.53
2023-10-05T10:01:54.597Z,2.60
2023-10-05T10:04:36.703Z,2.03
2023-10-05T10:07:14.626Z,2.30
2023-10-05T10:09:43.015Z,2.33
2023-10-05T10:12:12.245Z,2.50
2023-10-05T10:14:42.213Z,2.40
2023-10-05T10:17:26.090Z,3.15
2023-10-05T10:20:08.000Z,2.53
2023-10-05T10:22:48.085Z,2.45
2023-10-05T10:25:27.922Z,2.75
2023-10-05T10:28:10.537Z,2.50
2023-10-05T10:30:38.508Z,2.35
2023-10-05T10:33:20.916Z,2.30
2023-10-05T10:35:50.236Z,2.63
2023-10-05T10:38:18.419Z,2.55
2023-10-05T10:40:54.169Z,2.92
2023-10-05T10:43:33.278Z,2.72
2023-10-05T10:46:07.243Z,2.70
2023-10-05T10:48:38.264Z,2.35
2023-10-05T10:51:12.014Z,2.38
2023-10-05T10:53:41.456Z,2.55
2023-10-05T10:56:21.520Z,2.63
2023-10-05T10:58:50.432Z,2.70
2023-10-05T11:01:29.597Z,2.95
2023-10-05T11:04:01.618Z,2.60
2023-10-05T11:06:29.622Z,2.28
2023-10-05T11:09:00.622Z,2.08
2023-10-05T11:11:28.350Z,2.40
2023-10-05T11:13:57.641Z,1.83
2023-10-05T11:16:35.009Z,2.55
2023-10-05T11:19:12.392Z,2.47
2023-10-05T11:21:51.277Z,2.88
2023-10-05T11:24:19.515Z,2.45
2023-10-05T11:27:06.375Z,3.05
2023-10-05T11:29:43.844Z,2.83
2023-10-05T11:32:27.841Z,2.45
2023-10-05T11:35:19.421Z,2.17
2023-10-05T11:37:59.799Z,2.22
2023-10-05T11:40:32.109Z,2.50
2023-10-05T11:43:05.380Z,2.40
2023-10-05T11:45:34.732Z,2.70
2023-10-05T11:48:12.542Z,2.80
2023-10-05T11:50:55.428Z,2.58
2023-10-05T11:53:26.184Z,2.70
2023-10-05T11:55:54.651Z,2.90
2023-10-05T11:58:23.232Z,3.13
2023-10-05T12:00:51.988Z,3.38
2023-10-05T12:03:19.729Z,3.20
2023-10-05T12:05:47.624Z,3.15
2023-10-05T12:08:15.217Z,3.35
2023-10-05T12:10:46.596Z,3.15
2023-10-05T12:13:16.702Z,3.17
2023-10-05T12:15:44.445Z,2.75
2023-10-05T12:18:14.775Z,3.35
2023-10-05T12:20:43.588Z,2.95
2023-10-05T12:23:15.794Z,3.05
2023-10-05T12:25:46.039Z,3.42
2023-10-05T12:28:15.004Z,2.90
2023-10-05T12:30:45.265Z,3.28
2023-10-05T12:33:12.941Z,3.50
2023-10-05T12:35:40.682Z,4.18
2023-10-05T12:38:10.856Z,4.07
2023-10-05T12:40:41.990Z,3.30
2023-10-05T12:43:18.583Z,3.92
2023-10-05T12:45:48.026Z,4.22
2023-10-05T12:48:16.560Z,4.30
2023-10-05T12:50:44.562Z,3.92
2023-10-05T12:53:12.290Z,3.67
2023-10-05T12:55:40.175Z,3.78
2023-10-05T12:58:10.822Z,3.80
2023-10-05T13:00:43.129Z,4.82
2023-10-05T13:03:13.299Z,5.00
2023-10-05T13:05:44.526Z,5.47
2023-10-05T13:08:13.011Z,4.45
2023-10-05T13:10:41.295Z,4.60
2023-10-05T13:13:18.188Z,4.60
2023-10-05T13:15:47.738Z,4.47
2023-10-05T13:18:20.276Z,4.57
2023-10-05T13:20:50.206Z,4.65
2023-10-05T13:23:20.178Z,4.15
2023-10-05T13:25:49.459Z,4.28
2023-10-05T13:28:17.138Z,4.13
2023-10-05T13:30:48.251Z,4.28
2023-10-05T13:33:22.228Z,3.88
2023-10-05T13:35:51.678Z,4.00
2023-10-05T13:38:21.047Z,4.00
2023-10-05T13:40:57.663Z,5.05
2023-10-05T13:43:27.080Z,4.40
2023-10-05T13:45:55.169Z,5.22
2023-10-05T13:48:24.546Z,5.18
2023-10-05T13:50:52.320Z,5.05
2023-10-05T13:53:20.534Z,5.60
2023-10-05T13:55:49.847Z,5.53
2023-10-05T13:58:19.018Z,5.30
2023-10-05T14:00:47.405Z,6.40
2023-10-05T14:03:15.635Z,5.35
2023-10-05T14:05:51.942Z,5.45
2023-10-05T14:08:22.105Z,5.60
2023-10-05T14:10:49.833Z,4.78
2023-10-05T14:13:18.794Z,4.97
2023-10-05T14:15:49.062Z,5.50
2023-10-05T14:18:18.195Z,5.45
2023-10-05T14:20:50.874Z,5.07
2023-10-05T14:23:20.497Z,4.90
2023-10-05T14:25:48.190Z,4.82
2023-10-05T14:28:19.288Z,4.38
2023-10-05T14:30:48.613Z,4.43
2023-10-05T14:33:18.794Z,3.80
2023-10-05T14:35:46.529Z,4.35
2023-10-05T14:38:17.542Z,4.82
2023-10-05T14:40:45.776Z,5.85
2023-10-05T14:43:21.767Z,5.55
2023-10-05T14:45:50.988Z,5.93
2023-10-05T14:48:18.704Z,5.68
2023-10-05T14:50:46.380Z,6.05
2023-10-05T14:53:14.438Z,5.90
2023-10-05T14:55:48.406Z,5.35
2023-10-05T14:58:17.531Z,5.50
2023-10-05T15:00:46.659Z,5.53
2023-10-05T15:03:15.052Z,5.78
2023-10-05T15:05:44.482Z,5.75
2023-10-05T15:08:12.972Z,6.47
2023-10-05T15:10:41.637Z,5.80
2023-10-05T15:13:11.737Z,5.35
2023-10-05T15:15:39.669Z,5.95
2023-10-05T15:18:15.250Z,5.25
2023-10-05T15:20:43.566Z,5.55
2023-10-05T15:23:11.504Z,5.53
2023-10-05T15:25:41.208Z,5.32
2023-10-05T15:28:12.942Z,5.25
2023-10-05T15:30:43.190Z,5.07
2023-10-05T15:33:11.082Z,4.65
2023-10-05T15:35:39.155Z,5.28
2023-10-05T15:38:07.324Z,5.47
2023-10-05T15:40:37.314Z,5.20
2023-10-05T15:43:06.208Z,5.35
2023-10-05T15:45:35.924Z,4.82
2023-10-05T15:48:10.328Z,4.75
2023-10-05T15:50:40.356Z,4.32
2023-10-05T15:53:09.089Z,4.53
2023-10-05T15:55:37.187Z,4.03
2023-10-05T15:58:08.110Z,4.10
2023-10-05T16:00:36.512Z,4.00
2023-10-05T16:03:06.196Z,3.60
2023-10-05T16:05:36.406Z,4.05
2023-10-05T16:08:07.024Z,4.13
2023-10-05T16:10:35.112Z,4.72
2023-10-05T16:13:08.732Z,4.25
2023-10-05T16:15:36.917Z,4.60
2023-10-05T16:18:06.168Z,4.65
2023-10-05T16:20:37.885Z,5.60
2023-10-05T16:23:07.993Z,5.03
2023-10-05T16:25:37.782Z,5.32
2023-10-05T16:28:08.886Z,5.40
2023-10-05T16:30:37.158Z,5.47
2023-10-05T16:33:07.662Z,4.85
2023-10-05T16:35:36.021Z,4.65
2023-10-05T16:38:06.015Z,5.00
2023-10-05T16:40:34.250Z,4.05
2023-10-05T16:43:04.431Z,5.35
2023-10-05T16:45:32.784Z,4.63
2023-10-05T16:48:00.550Z,4.60
2023-10-05T16:50:30.502Z,3.88
2023-10-05T16:52:58.133Z,3.45
2023-10-05T16:55:26.549Z,3.80
2023-10-05T16:57:56.019Z,4.20
2023-10-05T17:00:25.216Z,4.40
2023-10-05T17:02:55.012Z,3.85
2023-10-05T17:05:26.534Z,3.60
2023-10-05T17:07:56.576Z,4.00
2023-10-05T17:10:25.161Z,3.90
2023-10-05T17:12:53.803Z,4.00
2023-10-05T17:15:22.634Z,4.10
2023-10-05T17:17:51.240Z,4.32
2023-10-05T17:20:19.052Z,4.20
2023-10-05T17:22:46.721Z,4.15
2023-10-05T17:25:17.631Z,4.40
2023-10-05T17:27:45.362Z,4.68
2023-10-05T17:30:14.766Z,4.78
2023-10-05T17:32:45.286Z,4.47
2023-10-05T17:35:13.781Z,4.80
2023-10-05T17:37:42.742Z,5.07
2023-10-05T17:40:11.107Z,4.97
2023-10-05T17:42:40.026Z,5.38
2023-10-05T17:45:08.083Z,4.93
2023-10-05T17:47:35.705Z,4.90
2023-10-05T17:50:03.650Z,5.22
2023-10-05T17:52:32.961Z,5.05
2023-10-05T17:55:00.665Z,5.50
2023-10-05T17:57:28.566Z,6.40
2023-10-05T17:59:57.545Z,6.38
2023-10-05T18:02:25.252Z,6.13
2023-10-05T18:04:52.928Z,6.75
2023-10-05T18:07:20.600Z,6.40
2023-10-05T18:09:48.292Z,6.18
2023-10-05T18:12:16.312Z,6.40
2023-10-05T18:14:43.936Z,6.45
2023-10-05T18:17:14.479Z,6.50
2023-10-05T18:19:42.180Z,6.30
2023-10-05T18:22:09.937Z,6.32
2023-10-05T18:24:38.053Z,6.00
2023-10-05T18:27:05.663Z,5.28
2023-10-05T18:29:33.290Z,5.95
2023-10-05T18:32:03.104Z,6.07
2023-10-05T18:34:32.139Z,5.93
2023-10-05T18:37:03.662Z,5.80
2023-10-05T18:39:31.696Z,5.90
2023-10-05T18:41:59.265Z,6.30
2023-10-05T18:44:26.935Z,5.47
2023-10-05T18:46:54.689Z,6.25
2023-10-05T18:49:23.223Z,6.30
2023-10-05T18:51:52.278Z,5.97
2023-10-05T18:54:20.315Z,6.13
2023-10-05T18:56:47.915Z,6.25
2023-10-05T18:59:15.708Z,5.18
2023-10-05T19:01:43.492Z,6.00
2023-10-05T19:04:11.672Z,5.75
2023-10-05T19:06:39.272Z,5.45
2023-10-05T19:09:10.785Z,6.22
2023-10-05T19:11:39.012Z,5.38
2023-10-05T19:14:08.084Z,5.80
2023-10-05T19:16:35.940Z,5.57
2023-10-05T19:19:03.595Z,5.93
2023-10-05T19:21:31.202Z,5.53
2023-10-05T19:23:58.884Z,5.75
2023-10-05T19:26:27.819Z,5.45
2023-10-05T19:28:55.449Z,5.22
2023-10-05T19:31:23.208Z,5.45
2023-10-05T19:33:51.145Z,5.63
2023-10-05T19:36:18.697Z,5.32
2023-10-05T19:38:46.298Z,5.40
2023-10-05T19:41:14.298Z,5.70
2023-10-05T19:43:43.422Z,5.65
2023-10-05T19:46:13.571Z,5.10
2023-10-05T19:48:41.180Z,5.15
2023-10-05T19:51:10.331Z,5.35
2023-10-05T19:53:38.375Z,5.43
2023-10-05T19:56:18.999Z,5.72
2023-10-05T19:58:55.207Z,4.75
2023-10-05T20:01:23.020Z,5.45
2023-10-05T20:03:50.802Z,5.65
2023-10-05T20:06:18.594Z,5.18
2023-10-05T20:08:46.244Z,4.80
2023-10-05T20:11:14.878Z,5.18
2023-10-05T20:13:42.779Z,5.25
2023-10-05T20:16:16.439Z,4.95
2023-10-05T20:18:44.254Z,5.22
2023-10-05T20:21:12.935Z,5.20
2023-10-05T20:23:41.279Z,4.50
2023-10-05T20:26:09.636Z,4.82
2023-10-05T20:28:37.336Z,4.90
2023-10-05T20:31:05.497Z,5.18
2023-10-05T20:33:34.406Z,4.63
2023-10-05T20:36:02.063Z,5.05
2023-10-05T20:38:29.713Z,5.05
2023-10-05T20:41:00.684Z,4.63
2023-10-05T20:43:28.380Z,4.88
2023-10-05T20:45:56.013Z,4.80
2023-10-05T20:48:24.245Z,4.65
2023-10-05T20:50:53.842Z,4.55
2023-10-05T20:53:21.512Z,4.40
2023-10-05T20:55:49.157Z,5.13
2023-10-05T20:58:17.850Z,4.65
2023-10-05T21:00:45.829Z,4.80
2023-10-05T21:03:13.436Z,5.35
2023-10-05T21:05:41.118Z,5.30
2023-10-05T21:08:10.033Z,5.28
2023-10-05T21:10:37.750Z,5.70
2023-10-05T21:13:05.536Z,5.32
2023-10-05T21:15:33.725Z,5.38
2023-10-05T21:18:01.712Z,5.22
2023-10-05T21:20:29.372Z,5.18
2023-10-05T21:22:57.214Z,4.70
2023-10-05T21:25:27.135Z,4.55
2023-10-05T21:27:55.207Z,4.97
2023-10-05T21:30:23.371Z,5.82
2023-10-05T21:32:51.112Z,5.40
